sensor_id;sensor_type;location;lat;lon;timestamp;pressure;altitude;pressure_sealevel;temperature;humidity
37200;BME280;23096;50.892;16.746;2022-09-12T00:00:03;99290.95;;;14.70;78.20
37200;BME280;23096;50.892;16.746;2022-09-12T00:02:32;99281.52;;;14.69;78.28
37200;BME280;23096;50.892;16.746;2022-09-12T00:04:58;99285.84;;;14.68;78.29
37200;BME280;23096;50.892;16.746;2022-09-12T00:07:24;99284.54;;;14.68;78.28
37200;BME280;23096;50.892;16.746;2022-09-12T00:09:50;99290.66;;;14.67;78.28
37200;BME280;23096;50.892;16.746;2022-09-12T00:12:18;99283.78;;;14.66;78.33
37200;BME280;23096;50.892;16.746;2022-09-12T00:14:46;99283.78;;;14.66;78.33
37200;BME280;23096;50.892;16.746;2022-09-12T00:17:13;99288.97;;;14.66;78.34
37200;BME280;23096;50.892;16.746;2022-09-12T00:19:39;99282.48;;;14.66;78.35
37200;BME280;23096;50.892;16.746;2022-09-12T00:22:04;99285.55;;;14.66;78.37
37200;BME280;23096;50.892;16.746;2022-09-12T00:24:30;99284.31;;;14.64;78.37
37200;BME280;23096;50.892;16.746;2022-09-12T00:26:58;99286.00;;;14.65;78.38
37200;BME280;23096;50.892;16.746;2022-09-12T00:29:24;99289.97;;;14.64;78.35
37200;BME280;23096;50.892;16.746;2022-09-12T00:31:50;99289.13;;;14.63;78.40
37200;BME280;23096;50.892;16.746;2022-09-12T00:34:16;99294.75;;;14.63;78.42
37200;BME280;23096;50.892;16.746;2022-09-12T00:36:42;99293.02;;;14.63;78.42
37200;BME280;23096;50.892;16.746;2022-09-12T00:39:08;99292.23;;;14.61;78.44
37200;BME280;23096;50.892;16.746;2022-09-12T00:41:36;99293.16;;;14.60;78.44
37200;BME280;23096;50.892;16.746;2022-09-12T00:46:59;99295.75;;;14.60;78.46
37200;BME280;23096;50.892;16.746;2022-09-12T00:52:07;99303.23;;;14.58;78.47
37200;BME280;23096;50.892;16.746;2022-09-12T00:54:37;99301.05;;;14.57;78.46
37200;BME280;23096;50.892;16.746;2022-09-12T00:57:04;99304.56;;;14.56;78.50
37200;BME280;23096;50.892;16.746;2022-09-12T00:59:33;99298.08;;;14.56;78.51
37200;BME280;23096;50.892;16.746;2022-09-12T01:02:03;99304.17;;;14.55;78.53
37200;BME280;23096;50.892;16.746;2022-09-12T01:04:29;99306.76;;;14.55;78.53
37200;BME280;23096;50.892;16.746;2022-09-12T01:06:56;99303.34;;;14.54;78.52
37200;BME280;23096;50.892;16.746;2022-09-12T01:09:23;99308.98;;;14.54;78.52
37200;BME280;23096;50.892;16.746;2022-09-12T01:11:50;99313.31;;;14.53;78.52
37200;BME280;23096;50.892;16.746;2022-09-12T01:14:18;99311.25;;;14.51;78.55
37200;BME280;23096;50.892;16.746;2022-09-12T01:16:44;99305.17;;;14.52;78.58
37200;BME280;23096;50.892;16.746;2022-09-12T01:32:54;99300.25;;;14.46;78.55
37200;BME280;23096;50.892;16.746;2022-09-12T01:41:09;99305.20;;;14.42;78.56
37200;BME280;23096;50.892;16.746;2022-09-12T01:46:30;99310.16;;;14.38;78.55
37200;BME280;23096;50.892;16.746;2022-09-12T01:51:53;99307.30;;;14.34;78.52
37200;BME280;23096;50.892;16.746;2022-09-12T01:57:21;99304.47;;;14.30;78.53
37200;BME280;23096;50.892;16.746;2022-09-12T01:59:59;99299.28;;;14.30;78.55
37200;BME280;23096;50.892;16.746;2022-09-12T02:07:38;99293.80;;;14.27;78.52
37200;BME280;23096;50.892;16.746;2022-09-12T02:10:12;99301.58;;;14.27;78.51
37200;BME280;23096;50.892;16.746;2022-09-12T02:12:46;99296.00;;;14.26;78.51
37200;BME280;23096;50.892;16.746;2022-09-12T02:15:21;99300.75;;;14.27;78.52
37200;BME280;23096;50.892;16.746;2022-09-12T02:17:49;99298.05;;;14.28;78.54
37200;BME280;23096;50.892;16.746;2022-09-12T02:20:18;99298.05;;;14.28;78.52
37200;BME280;23096;50.892;16.746;2022-09-12T02:22:52;99295.93;;;14.28;78.43
37200;BME280;23096;50.892;16.746;2022-09-12T02:25:19;99297.36;;;14.25;78.45
37200;BME280;23096;50.892;16.746;2022-09-12T02:27:52;99303.84;;;14.25;78.44
37200;BME280;23096;50.892;16.746;2022-09-12T02:30:15;99304.36;;;14.23;78.39
37200;BME280;23096;50.892;16.746;2022-09-12T02:32:51;99301.41;;;14.22;78.43
37200;BME280;23096;50.892;16.746;2022-09-12T02:38:09;99301.94;;;14.19;78.44
37200;BME280;23096;50.892;16.746;2022-09-12T02:40:37;99295.36;;;14.21;78.44
37200;BME280;23096;50.892;16.746;2022-09-12T02:43:04;99295.46;;;14.19;78.44
37200;BME280;23096;50.892;16.746;2022-09-12T02:45:30;99295.06;;;14.18;78.45
37200;BME280;23096;50.892;16.746;2022-09-12T02:48:03;99292.07;;;14.17;78.44
37200;BME280;23096;50.892;16.746;2022-09-12T02:50:43;99290.41;;;14.16;78.42
37200;BME280;23096;50.892;16.746;2022-09-12T02:53:09;99290.88;;;14.16;78.40
37200;BME280;23096;50.892;16.746;2022-09-12T02:55:36;99295.66;;;14.15;78.44
37200;BME280;23096;50.892;16.746;2022-09-12T02:58:04;99291.77;;;14.15;78.44
37200;BME280;23096;50.892;16.746;2022-09-12T03:00:36;99296.55;;;14.14;78.40
37200;BME280;23096;50.892;16.746;2022-09-12T03:19:26;99294.14;;;14.00;78.43
37200;BME280;23096;50.892;16.746;2022-09-12T03:22:02;99289.49;;;13.98;78.47
37200;BME280;23096;50.892;16.746;2022-09-12T03:24:34;99289.56;;;13.97;78.49
37200;BME280;23096;50.892;16.746;2022-09-12T03:27:13;99300.25;;;13.99;78.45
37200;BME280;23096;50.892;16.746;2022-09-12T03:29:44;99300.84;;;13.96;78.40
37200;BME280;23096;50.892;16.746;2022-09-12T03:32:12;99299.62;;;13.94;78.45
37200;BME280;23096;50.892;16.746;2022-09-12T03:34:38;99297.45;;;13.94;78.43
37200;BME280;23096;50.892;16.746;2022-09-12T03:37:04;99297.09;;;13.93;78.38
37200;BME280;23096;50.892;16.746;2022-09-12T03:39:30;99295.92;;;13.90;78.42
37200;BME280;23096;50.892;16.746;2022-09-12T03:41:56;99299.34;;;13.90;78.47
37200;BME280;23096;50.892;16.746;2022-09-12T03:44:23;99301.03;;;13.91;78.51
37200;BME280;23096;50.892;16.746;2022-09-12T03:46:51;99300.14;;;13.92;78.51
37200;BME280;23096;50.892;16.746;2022-09-12T03:49:17;99303.56;;;13.93;78.49
37200;BME280;23096;50.892;16.746;2022-09-12T03:51:43;99304.92;;;13.91;78.48
37200;BME280;23096;50.892;16.746;2022-09-12T03:54:10;99306.22;;;13.91;78.50
37200;BME280;23096;50.892;16.746;2022-09-12T03:56:36;99302.33;;;13.91;78.48
37200;BME280;23096;50.892;16.746;2022-09-12T03:59:04;99304.09;;;13.91;78.54
37200;BME280;23096;50.892;16.746;2022-09-12T04:01:31;99302.86;;;13.89;78.54
37200;BME280;23096;50.892;16.746;2022-09-12T04:03:57;99309.33;;;13.89;78.53
37200;BME280;23096;50.892;16.746;2022-09-12T04:06:23;99311.09;;;13.89;78.55
37200;BME280;23096;50.892;16.746;2022-09-12T04:08:50;99311.92;;;13.89;78.61
37200;BME280;23096;50.892;16.746;2022-09-12T04:11:17;99310.10;;;13.91;78.61
37200;BME280;23096;50.892;16.746;2022-09-12T04:13:45;99313.59;;;13.90;78.60
37200;BME280;23096;50.892;16.746;2022-09-12T04:16:12;99312.69;;;13.91;78.60
37200;BME280;23096;50.892;16.746;2022-09-12T04:18:38;99315.75;;;13.91;78.61
37200;BME280;23096;50.892;16.746;2022-09-12T04:21:05;99313.09;;;13.92;78.65
37200;BME280;23096;50.892;16.746;2022-09-12T04:23:33;99313.86;;;13.94;78.67
37200;BME280;23096;50.892;16.746;2022-09-12T04:26:00;99312.94;;;13.95;78.67
37200;BME280;23096;50.892;16.746;2022-09-12T04:28:27;99312.41;;;13.97;78.69
37200;BME280;23096;50.892;16.746;2022-09-12T04:30:53;99313.20;;;13.99;78.68
37200;BME280;23096;50.892;16.746;2022-09-12T04:33:20;99317.92;;;14.00;78.65
37200;BME280;23096;50.892;16.746;2022-09-12T04:35:46;99314.10;;;13.98;78.66
37200;BME280;23096;50.892;16.746;2022-09-12T04:38:12;99314.87;;;14.00;78.69
37200;BME280;23096;50.892;16.746;2022-09-12T04:40:38;99311.81;;;14.01;78.68
37200;BME280;23096;50.892;16.746;2022-09-12T04:43:04;99315.64;;;14.03;78.69
37200;BME280;23096;50.892;16.746;2022-09-12T04:45:31;99316.47;;;14.03;78.70
37200;BME280;23096;50.892;16.746;2022-09-12T04:47:58;99313.81;;;14.05;78.72
37200;BME280;23096;50.892;16.746;2022-09-12T04:50:24;99315.45;;;14.07;78.74
37200;BME280;23096;50.892;16.746;2022-09-12T04:52:51;99323.65;;;14.07;78.68
37200;BME280;23096;50.892;16.746;2022-09-12T04:55:18;99319.39;;;14.06;78.66
37200;BME280;23096;50.892;16.746;2022-09-12T04:57:44;99319.39;;;14.06;78.71
37200;BME280;23096;50.892;16.746;2022-09-12T05:00:10;99320.63;;;14.07;78.74
37200;BME280;23096;50.892;16.746;2022-09-12T05:02:38;99315.51;;;14.06;78.76
37200;BME280;23096;50.892;16.746;2022-09-12T05:05:04;99314.52;;;14.08;78.76
37200;BME280;23096;50.892;16.746;2022-09-12T05:07:30;99320.09;;;14.09;78.74
37200;BME280;23096;50.892;16.746;2022-09-12T05:09:58;99321.92;;;14.07;78.70
37200;BME280;23096;50.892;16.746;2022-09-12T05:12:25;99328.40;;;14.07;78.69
37200;BME280;23096;50.892;16.746;2022-09-12T05:14:51;99323.28;;;14.06;78.73
37200;BME280;23096;50.892;16.746;2022-09-12T05:17:17;99319.92;;;14.04;78.74
37200;BME280;23096;50.892;16.746;2022-09-12T05:19:43;99331.18;;;14.03;78.74
37200;BME280;23096;50.892;16.746;2022-09-12T05:22:09;99328.22;;;14.02;78.74
37200;BME280;23096;50.892;16.746;2022-09-12T05:24:35;99331.70;;;14.00;78.79
37200;BME280;23096;50.892;16.746;2022-09-12T05:27:03;99326.59;;;13.99;78.80
37200;BME280;23096;50.892;16.746;2022-09-12T05:29:29;99330.94;;;13.98;78.80
37200;BME280;23096;50.892;16.746;2022-09-12T05:31:56;99343.42;;;13.99;78.84
37200;BME280;23096;50.892;16.746;2022-09-12T05:34:21;99340.90;;;13.97;78.85
37200;BME280;23096;50.892;16.746;2022-09-12T05:36:47;99349.53;;;13.98;78.87
37200;BME280;23096;50.892;16.746;2022-09-12T05:39:13;99346.08;;;13.97;78.87
37200;BME280;23096;50.892;16.746;2022-09-12T05:41:39;99343.65;;;13.94;78.87
37200;BME280;23096;50.892;16.746;2022-09-12T05:44:05;99346.23;;;13.94;78.93
37200;BME280;23096;50.892;16.746;2022-09-12T05:46:37;99352.19;;;13.96;78.97
37200;BME280;23096;50.892;16.746;2022-09-12T05:49:06;99360.33;;;13.97;78.95
37200;BME280;23096;50.892;16.746;2022-09-12T05:51:35;99350.89;;;13.96;78.98
37200;BME280;23096;50.892;16.746;2022-09-12T05:54:06;99350.06;;;13.96;78.98
37200;BME280;23096;50.892;16.746;2022-09-12T05:56:36;99355.23;;;13.96;79.00
37200;BME280;23096;50.892;16.746;2022-09-12T05:59:20;99349.13;;;13.97;79.04
37200;BME280;23096;50.892;16.746;2022-09-12T06:01:44;99358.20;;;13.97;79.03
37200;BME280;23096;50.892;16.746;2022-09-12T06:04:11;99360.33;;;13.97;79.09
37200;BME280;23096;50.892;16.746;2022-09-12T06:06:41;99352.89;;;14.00;79.14
37200;BME280;23096;50.892;16.746;2022-09-12T06:09:12;99358.02;;;14.02;79.12
37200;BME280;23096;50.892;16.746;2022-09-12T06:11:40;99352.43;;;14.00;79.13
37200;BME280;23096;50.892;16.746;2022-09-12T06:14:06;99356.19;;;14.04;79.20
37200;BME280;23096;50.892;16.746;2022-09-12T06:16:34;99355.59;;;14.07;79.22
37200;BME280;23096;50.892;16.746;2022-09-12T06:19:02;99355.91;;;14.10;79.25
37200;BME280;23096;50.892;16.746;2022-09-12T06:21:30;99357.97;;;14.12;79.21
37200;BME280;23096;50.892;16.746;2022-09-12T06:23:56;99355.91;;;14.10;79.18
37200;BME280;23096;50.892;16.746;2022-09-12T06:26:25;99357.20;;;14.10;79.21
37200;BME280;23096;50.892;16.746;2022-09-12T06:28:54;99357.97;;;14.12;79.29
37200;BME280;23096;50.892;16.746;2022-09-12T06:31:25;99358.73;;;14.14;79.31
37200;BME280;23096;50.892;16.746;2022-09-12T06:33:54;99356.95;;;14.16;79.34
37200;BME280;23096;50.892;16.746;2022-09-12T06:36:21;99361.14;;;14.18;79.37
37200;BME280;23096;50.892;16.746;2022-09-12T06:38:56;99357.55;;;14.21;79.40
37200;BME280;23096;50.892;16.746;2022-09-12T06:41:25;99358.72;;;14.24;79.39
37200;BME280;23096;50.892;16.746;2022-09-12T06:43:52;99355.30;;;14.24;79.39
37200;BME280;23096;50.892;16.746;2022-09-12T06:46:18;99359.89;;;14.27;79.43
37200;BME280;23096;50.892;16.746;2022-09-12T06:48:44;99361.19;;;14.27;79.40
37200;BME280;23096;50.892;16.746;2022-09-12T06:51:11;99371.61;;;14.26;79.40
37200;BME280;23096;50.892;16.746;2022-09-12T06:53:39;99366.37;;;14.27;79.45
37200;BME280;23096;50.892;16.746;2022-09-12T06:56:06;99366.73;;;14.28;79.54
37200;BME280;23096;50.892;16.746;2022-09-12T06:58:34;99366.08;;;14.33;79.59
37200;BME280;23096;50.892;16.746;2022-09-12T07:01:01;99370.59;;;14.38;79.62
37200;BME280;23096;50.892;16.746;2022-09-12T07:03:32;99372.30;;;14.40;79.51
37200;BME280;23096;50.892;16.746;2022-09-12T07:06:03;99370.91;;;14.41;79.56
37200;BME280;23096;50.892;16.746;2022-09-12T07:08:36;99375.19;;;14.42;79.54
37200;BME280;23096;50.892;16.746;2022-09-12T07:11:13;99376.09;;;14.41;79.52
37200;BME280;23096;50.892;16.746;2022-09-12T07:13:45;99376.55;;;14.41;79.47
37200;BME280;23096;50.892;16.746;2022-09-12T07:16:12;99382.20;;;14.40;79.50
37200;BME280;23096;50.892;16.746;2022-09-12T07:18:39;99382.50;;;14.43;79.57
37200;BME280;23096;50.892;16.746;2022-09-12T07:21:10;99382.84;;;14.45;79.54
37200;BME280;23096;50.892;16.746;2022-09-12T07:23:35;99378.42;;;14.47;79.53
37200;BME280;23096;50.892;16.746;2022-09-12T07:26:01;99386.89;;;14.51;79.59
37200;BME280;23096;50.892;16.746;2022-09-12T07:28:28;99386.60;;;14.57;79.66
37200;BME280;23096;50.892;16.746;2022-09-12T07:30:55;99391.99;;;14.63;79.67
37200;BME280;23096;50.892;16.746;2022-09-12T07:33:22;99393.63;;;14.65;79.62
37200;BME280;23096;50.892;16.746;2022-09-12T07:35:51;99394.62;;;14.71;79.62
37200;BME280;23096;50.892;16.746;2022-09-12T07:38:19;99395.78;;;14.74;79.57
37200;BME280;23096;50.892;16.746;2022-09-12T07:40:45;99400.57;;;14.73;79.47
37200;BME280;23096;50.892;16.746;2022-09-12T07:43:11;99396.48;;;14.78;79.52
37200;BME280;23096;50.892;16.746;2022-09-12T07:45:37;99395.88;;;14.82;79.47
37200;BME280;23096;50.892;16.746;2022-09-12T07:48:05;99398.70;;;14.86;79.46
37200;BME280;23096;50.892;16.746;2022-09-12T07:50:31;99400.17;;;14.91;79.49
37200;BME280;23096;50.892;16.746;2022-09-12T07:52:57;99394.54;;;15.01;79.62
37200;BME280;23096;50.892;16.746;2022-09-12T07:55:24;99397.78;;;15.14;79.70
37200;BME280;23096;50.892;16.746;2022-09-12T07:57:52;99403.22;;;15.27;79.68
37200;BME280;23096;50.892;16.746;2022-09-12T08:00:19;99399.94;;;15.32;79.48
37200;BME280;23096;50.892;16.746;2022-09-12T08:02:52;99402.00;;;15.34;79.37
37200;BME280;23096;50.892;16.746;2022-09-12T08:05:18;99411.02;;;15.36;79.24
37200;BME280;23096;50.892;16.746;2022-09-12T08:07:45;99397.41;;;15.31;79.09
37200;BME280;23096;50.892;16.746;2022-09-12T08:10:11;99405.20;;;15.31;79.11
37200;BME280;23096;50.892;16.746;2022-09-12T08:12:37;99404.38;;;15.39;79.26
37200;BME280;23096;50.892;16.746;2022-09-12T08:15:04;99400.19;;;15.54;79.44
37200;BME280;23096;50.892;16.746;2022-09-12T08:17:30;99407.88;;;15.64;79.31
37200;BME280;23096;50.892;16.746;2022-09-12T08:19:56;99401.16;;;15.60;78.93
37200;BME280;23096;50.892;16.746;2022-09-12T08:22:23;99415.30;;;15.55;78.80
37200;BME280;23096;50.892;16.746;2022-09-12T08:24:50;99408.80;;;15.46;78.68
37200;BME280;23096;50.892;16.746;2022-09-12T08:27:18;99407.06;;;15.46;78.79
37200;BME280;23096;50.892;16.746;2022-09-12T08:29:43;99403.83;;;15.50;78.80
37200;BME280;23096;50.892;16.746;2022-09-12T08:32:09;99401.41;;;15.56;78.84
37200;BME280;23096;50.892;16.746;2022-09-12T08:34:35;99401.78;;;15.65;78.87
37200;BME280;23096;50.892;16.746;2022-09-12T08:37:01;99401.09;;;15.70;78.71
37200;BME280;23096;50.892;16.746;2022-09-12T08:39:28;99403.80;;;15.78;78.70
37200;BME280;23096;50.892;16.746;2022-09-12T08:41:58;99399.71;;;15.89;78.67
37200;BME280;23096;50.892;16.746;2022-09-12T08:44:30;99404.14;;;15.96;78.56
37200;BME280;23096;50.892;16.746;2022-09-12T08:47:29;99401.47;;;15.98;78.30
37200;BME280;23096;50.892;16.746;2022-09-12T08:55:43;99399.28;;;15.90;77.87
37200;BME280;23096;50.892;16.746;2022-09-12T08:58:21;99404.84;;;15.91;77.81
37200;BME280;23096;50.892;16.746;2022-09-12T09:00:57;99402.16;;;15.93;77.83
37200;BME280;23096;50.892;16.746;2022-09-12T09:03:46;99401.69;;;16.02;77.95
37200;BME280;23096;50.892;16.746;2022-09-12T09:09:21;99401.11;;;16.21;77.73
37200;BME280;23096;50.892;16.746;2022-09-12T09:14:47;99403.39;;;16.19;77.28
37200;BME280;23096;50.892;16.746;2022-09-12T09:17:25;99401.34;;;16.17;77.18
37200;BME280;23096;50.892;16.746;2022-09-12T09:20:04;99401.52;;;16.14;77.07
37200;BME280;23096;50.892;16.746;2022-09-12T09:22:43;99407.63;;;16.13;77.02
37200;BME280;23096;50.892;16.746;2022-09-12T09:25:21;99406.33;;;16.13;77.04
37200;BME280;23096;50.892;16.746;2022-09-12T09:27:54;99404.02;;;16.15;76.98
37200;BME280;23096;50.892;16.746;2022-09-12T09:30:30;99409.21;;;16.15;76.90
37200;BME280;23096;50.892;16.746;2022-09-12T09:32:57;99407.40;;;16.17;76.89
37200;BME280;23096;50.892;16.746;2022-09-12T09:35:38;99405.16;;;16.18;76.82
37200;BME280;23096;50.892;16.746;2022-09-12T09:41:19;99411.45;;;16.14;76.65
37200;BME280;23096;50.892;16.746;2022-09-12T09:43:45;99409.39;;;16.12;76.59
37200;BME280;23096;50.892;16.746;2022-09-12T09:46:11;99409.32;;;16.14;76.65
37200;BME280;23096;50.892;16.746;2022-09-12T09:48:45;99405.02;;;16.13;76.48
37200;BME280;23096;50.892;16.746;2022-09-12T09:51:14;99413.84;;;16.10;76.36
37200;BME280;23096;50.892;16.746;2022-09-12T09:53:59;99407.85;;;16.08;76.37
37200;BME280;23096;50.892;16.746;2022-09-12T09:56:36;99408.39;;;16.06;76.32
37200;BME280;23096;50.892;16.746;2022-09-12T10:04:31;99413.22;;;16.14;76.33
37200;BME280;23096;50.892;16.746;2022-09-12T10:07:02;99414.95;;;16.13;76.21
37200;BME280;23096;50.892;16.746;2022-09-12T10:09:32;99413.44;;;16.09;76.05
37200;BME280;23096;50.892;16.746;2022-09-12T10:12:00;99411.93;;;16.05;76.06
37200;BME280;23096;50.892;16.746;2022-09-12T10:14:38;99411.31;;;16.08;76.09
37200;BME280;23096;50.892;16.746;2022-09-12T10:17:27;99413.22;;;16.14;76.10
37200;BME280;23096;50.892;16.746;2022-09-12T10:19:52;99406.31;;;16.21;76.13
37200;BME280;23096;50.892;16.746;2022-09-12T10:22:19;99402.75;;;16.31;76.11
37200;BME280;23096;50.892;16.746;2022-09-12T10:24:50;99401.28;;;16.43;76.17
37200;BME280;23096;50.892;16.746;2022-09-12T10:27:22;99401.97;;;16.62;76.27
37200;BME280;23096;50.892;16.746;2022-09-12T10:29:53;99397.89;;;16.81;76.26
37200;BME280;23096;50.892;16.746;2022-09-12T10:32:38;99399.21;;;16.97;76.10
37200;BME280;23096;50.892;16.746;2022-09-12T10:35:15;99396.45;;;17.08;75.78
37200;BME280;23096;50.892;16.746;2022-09-12T10:37:37;99397.59;;;17.11;75.60
37200;BME280;23096;50.892;16.746;2022-09-12T10:40:04;99390.53;;;17.13;75.31
37200;BME280;23096;50.892;16.746;2022-09-12T10:42:42;99394.27;;;17.16;75.19
37200;BME280;23096;50.892;16.746;2022-09-12T10:45:33;99397.26;;;17.24;75.03
37200;BME280;23096;50.892;16.746;2022-09-12T10:47:54;99389.45;;;17.24;74.78
37200;BME280;23096;50.892;16.746;2022-09-12T10:50:26;99389.09;;;17.23;74.64
37200;BME280;23096;50.892;16.746;2022-09-12T10:52:54;99390.41;;;17.30;74.66
37200;BME280;23096;50.892;16.746;2022-09-12T10:55:46;99392.30;;;17.35;74.55
37200;BME280;23096;50.892;16.746;2022-09-12T10:58:45;99400.13;;;17.42;74.38
37200;BME280;23096;50.892;16.746;2022-09-12T11:04:13;99384.90;;;17.58;74.28
37200;BME280;23096;50.892;16.746;2022-09-12T11:06:52;99389.47;;;17.61;74.01
37200;BME280;23096;50.892;16.746;2022-09-12T11:09:37;99392.63;;;17.59;73.82
37200;BME280;23096;50.892;16.746;2022-09-12T11:12:19;99387.15;;;17.57;73.64
37200;BME280;23096;50.892;16.746;2022-09-12T11:15:01;99390.50;;;17.59;73.65
37200;BME280;23096;50.892;16.746;2022-09-12T11:20:31;99383.43;;;17.61;73.30
37200;BME280;23096;50.892;16.746;2022-09-12T11:23:25;99383.25;;;17.64;73.32
37200;BME280;23096;50.892;16.746;2022-09-12T11:25:58;99387.91;;;17.66;73.10
37200;BME280;23096;50.892;16.746;2022-09-12T11:28:34;99382.48;;;17.62;72.98
37200;BME280;23096;50.892;16.746;2022-09-12T11:31:27;99385.20;;;17.60;72.82
37200;BME280;23096;50.892;16.746;2022-09-12T11:33:51;99383.98;;;17.59;72.85
37200;BME280;23096;50.892;16.746;2022-09-12T11:38:59;99366.59;;;17.67;72.76
37200;BME280;23096;50.892;16.746;2022-09-12T11:41:29;99377.20;;;17.71;72.67
37200;BME280;23096;50.892;16.746;2022-09-12T11:44:18;99375.25;;;17.74;72.59
37200;BME280;23096;50.892;16.746;2022-09-12T11:47:03;99376.20;;;17.73;72.44
37200;BME280;23096;50.892;16.746;2022-09-12T11:49:30;99376.75;;;17.71;72.36
37200;BME280;23096;50.892;16.746;2022-09-12T11:55:06;99382.88;;;17.70;72.11
37200;BME280;23096;50.892;16.746;2022-09-12T11:57:48;99374.98;;;17.72;72.05
37200;BME280;23096;50.892;16.746;2022-09-12T12:08:15;99380.00;;;17.68;71.62
37200;BME280;23096;50.892;16.746;2022-09-12T12:10:41;99380.84;;;17.68;71.54
37200;BME280;23096;50.892;16.746;2022-09-12T12:13:18;99388.48;;;17.71;71.48
37200;BME280;23096;50.892;16.746;2022-09-12T12:15:50;99380.92;;;17.67;71.31
37200;BME280;23096;50.892;16.746;2022-09-12T12:18:15;99371.06;;;17.65;71.23
37200;BME280;23096;50.892;16.746;2022-09-12T12:20:43;99368.06;;;17.63;71.21
37200;BME280;23096;50.892;16.746;2022-09-12T12:23:29;99371.62;;;17.62;71.08
37200;BME280;23096;50.892;16.746;2022-09-12T12:25:58;99371.79;;;17.59;71.06
37200;BME280;23096;50.892;16.746;2022-09-12T12:28:54;99371.31;;;17.60;71.06
37200;BME280;23096;50.892;16.746;2022-09-12T12:31:12;99369.66;;;17.59;70.98
37200;BME280;23096;50.892;16.746;2022-09-12T12:36:27;99356.81;;;17.63;71.14
37200;BME280;23096;50.892;16.746;2022-09-12T12:38:54;99360.74;;;17.77;71.28
37200;BME280;23096;50.892;16.746;2022-09-12T12:43:50;99366.09;;;18.05;71.23
37200;BME280;23096;50.892;16.746;2022-09-12T12:46:21;99366.74;;;18.15;71.20
37200;BME280;23096;50.892;16.746;2022-09-12T12:51:44;99378.00;;;18.23;70.77
37200;BME280;23096;50.892;16.746;2022-09-12T12:57:04;99375.86;;;18.30;70.62
37200;BME280;23096;50.892;16.746;2022-09-12T12:59:29;99371.56;;;18.29;70.51
37200;BME280;23096;50.892;16.746;2022-09-12T13:01:55;99373.52;;;18.25;70.38
37200;BME280;23096;50.892;16.746;2022-09-12T13:04:24;99370.36;;;18.20;70.30
37200;BME280;23096;50.892;16.746;2022-09-12T13:07:01;99372.52;;;18.13;70.19
37200;BME280;23096;50.892;16.746;2022-09-12T13:09:31;99368.05;;;18.08;70.11
37200;BME280;23096;50.892;16.746;2022-09-12T13:12:06;99362.18;;;18.05;70.02
37200;BME280;23096;50.892;16.746;2022-09-12T13:17:18;99368.61;;;17.99;69.99
37200;BME280;23096;50.892;16.746;2022-09-12T13:19:47;99362.83;;;17.94;69.89
37200;BME280;23096;50.892;16.746;2022-09-12T13:22:13;99357.23;;;17.86;69.83
37200;BME280;23096;50.892;16.746;2022-09-12T13:24:46;99353.94;;;17.82;69.84
37200;BME280;23096;50.892;16.746;2022-09-12T13:27:24;99348.19;;;17.77;69.80
37200;BME280;23096;50.892;16.746;2022-09-12T13:30:10;99349.40;;;17.71;69.77
37200;BME280;23096;50.892;16.746;2022-09-12T13:32:35;99344.92;;;17.66;69.74
37200;BME280;23096;50.892;16.746;2022-09-12T13:35:06;99339.50;;;17.62;69.79
37200;BME280;23096;50.892;16.746;2022-09-12T13:37:47;99341.75;;;17.61;69.77
37200;BME280;23096;50.892;16.746;2022-09-12T13:40:28;99336.70;;;17.58;69.78
37200;BME280;23096;50.892;16.746;2022-09-12T13:45:40;99333.92;;;17.54;69.76
37200;BME280;23096;50.892;16.746;2022-09-12T13:48:26;99331.41;;;17.52;69.76
37200;BME280;23096;50.892;16.746;2022-09-12T13:50:56;99327.97;;;17.52;69.76
37200;BME280;23096;50.892;16.746;2022-09-12T13:53:28;99329.27;;;17.52;69.78
37200;BME280;23096;50.892;16.746;2022-09-12T13:55:57;99335.70;;;17.53;69.83
37200;BME280;23096;50.892;16.746;2022-09-12T13:58:25;99337.35;;;17.54;69.86
37200;BME280;23096;50.892;16.746;2022-09-12T14:01:06;99332.97;;;17.55;69.82
37200;BME280;23096;50.892;16.746;2022-09-12T14:03:41;99335.41;;;17.58;69.88
37200;BME280;23096;50.892;16.746;2022-09-12T14:06:51;99331.41;;;17.59;69.86
37200;BME280;23096;50.892;16.746;2022-09-12T14:11:50;99332.72;;;17.59;69.82
37200;BME280;23096;50.892;16.746;2022-09-12T14:14:24;99330.20;;;17.58;69.77
37200;BME280;23096;50.892;16.746;2022-09-12T14:16:56;99330.37;;;17.55;69.75
37200;BME280;23096;50.892;16.746;2022-09-12T14:19:22;99331.48;;;17.51;69.76
37200;BME280;23096;50.892;16.746;2022-09-12T14:21:51;99331.13;;;17.50;69.75
37200;BME280;23096;50.892;16.746;2022-09-12T14:24:17;99338.00;;;17.51;69.79
37200;BME280;23096;50.892;16.746;2022-09-12T14:26:45;99337.08;;;17.52;69.83
37200;BME280;23096;50.892;16.746;2022-09-12T14:29:14;99335.41;;;17.58;69.93
37200;BME280;23096;50.892;16.746;2022-09-12T14:31:41;99330.77;;;17.63;69.92
37200;BME280;23096;50.892;16.746;2022-09-12T14:34:09;99331.98;;;17.65;69.86
37200;BME280;23096;50.892;16.746;2022-09-12T14:42:03;99331.33;;;17.68;69.81
37200;BME280;23096;50.892;16.746;2022-09-12T14:44:30;99325.95;;;17.71;69.84
37200;BME280;23096;50.892;16.746;2022-09-12T14:46:59;99329.86;;;17.78;69.81
37200;BME280;23096;50.892;16.746;2022-09-12T14:49:33;99330.22;;;17.79;69.74
37200;BME280;23096;50.892;16.746;2022-09-12T14:51:58;99329.09;;;17.83;69.70
37200;BME280;23096;50.892;16.746;2022-09-12T14:56:59;99327.64;;;18.01;69.69
37200;BME280;23096;50.892;16.746;2022-09-12T15:04:52;99324.47;;;17.96;69.40
37200;BME280;23096;50.892;16.746;2022-09-12T15:07:33;99317.04;;;17.97;69.35
37200;BME280;23096;50.892;16.746;2022-09-12T15:10:35;99316.00;;;17.99;69.34
37200;BME280;23096;50.892;16.746;2022-09-12T15:15:39;99309.31;;;17.95;69.20
37200;BME280;23096;50.892;16.746;2022-09-12T15:18:06;99318.26;;;17.91;69.12